sensor_id;sensor_type;location;lat;lon;timestamp;temperature;humidity
13174;DHT22;6652;48.802;9.190;2023-04-16T00:00:39;8.50;99.90
13174;DHT22;6652;48.802;9.190;2023-04-16T00:03:06;8.50;99.90
13174;DHT22;6652;48.802;9.190;2023-04-16T00:05:33;8.50;99.90
13174;DHT22;6652;48.802;9.190;2023-04-16T00:08:00;8.50;99.90
13174;DHT22;6652;48.802;9.190;2023-04-16T00:10:27;8.50;99.90
13174;DHT22;6652;48.802;9.190;2023-04-16T00:12:54;8.50;99.90
13174;DHT22;6652;48.802;9.190;2023-04-16T00:15:22;8.50;99.90
13174;DHT22;6652;48.802;9.190;2023-04-16T00:17:49;8.50;99.90
13174;DHT22;6652;48.802;9.190;2023-04-16T00:20:16;8.50;99.90
13174;DHT22;6652;48.802;9.190;2023-04-16T00:22:44;8.50;99.90
13174;DHT22;6652;48.802;9.190;2023-04-16T00:25:12;8.50;99.90
13174;DHT22;6652;48.802;9.190;2023-04-16T00:27:39;8.50;99.90
13174;DHT22;6652;48.802;9.190;2023-04-16T00:30:06;8.50;99.90
13174;DHT22;6652;48.802;9.190;2023-04-16T00:32:35;8.60;99.90
13174;DHT22;6652;48.802;9.190;2023-04-16T00:35:02;8.60;99.90
13174;DHT22;6652;48.802;9.190;2023-04-16T00:37:29;8.60;99.90
13174;DHT22;6652;48.802;9.190;2023-04-16T00:39:56;8.50;99.90
13174;DHT22;6652;48.802;9.190;2023-04-16T00:42:22;8.50;99.90
13174;DHT22;6652;48.802;9.190;2023-04-16T00:44:49;8.50;99.90
13174;DHT22;6652;48.802;9.190;2023-04-16T00:47:16;8.50;99.90
13174;DHT22;6652;48.802;9.190;2023-04-16T00:49:46;8.60;99.90
13174;DHT22;6652;48.802;9.190;2023-04-16T00:52:13;8.50;99.90
13174;DHT22;6652;48.802;9.190;2023-04-16T00:54:40;8.50;99.90
13174;DHT22;6652;48.802;9.190;2023-04-16T00:57:07;8.50;99.90
13174;DHT22;6652;48.802;9.190;2023-04-16T00:59:35;8.50;99.90
13174;DHT22;6652;48.802;9.190;2023-04-16T01:02:01;8.50;99.90
13174;DHT22;6652;48.802;9.190;2023-04-16T01:04:28;8.50;99.90
13174;DHT22;6652;48.802;9.190;2023-04-16T01:06:57;8.50;99.90
13174;DHT22;6652;48.802;9.190;2023-04-16T01:09:23;8.40;99.90
13174;DHT22;6652;48.802;9.190;2023-04-16T01:11:50;8.40;99.90
13174;DHT22;6652;48.802;9.190;2023-04-16T01:14:17;8.40;99.90
13174;DHT22;6652;48.802;9.190;2023-04-16T01:16:44;8.40;99.90
13174;DHT22;6652;48.802;9.190;2023-04-16T01:19:11;8.40;99.90
13174;DHT22;6652;48.802;9.190;2023-04-16T01:21:39;8.50;99.90
13174;DHT22;6652;48.802;9.190;2023-04-16T01:24:06;8.40;99.90
13174;DHT22;6652;48.802;9.190;2023-04-16T01:26:33;8.40;99.90
13174;DHT22;6652;48.802;9.190;2023-04-16T01:29:07;8.40;99.90
13174;DHT22;6652;48.802;9.190;2023-04-16T01:31:33;8.40;99.90
13174;DHT22;6652;48.802;9.190;2023-04-16T01:34:00;9.50;99.90
13174;DHT22;6652;48.802;9.190;2023-04-16T01:36:27;8.40;99.90
13174;DHT22;6652;48.802;9.190;2023-04-16T01:38:55;8.40;99.90
13174;DHT22;6652;48.802;9.190;2023-04-16T01:41:22;8.40;99.90
13174;DHT22;6652;48.802;9.190;2023-04-16T01:43:49;8.40;99.90
13174;DHT22;6652;48.802;9.190;2023-04-16T01:46:19;8.40;99.90
13174;DHT22;6652;48.802;9.190;2023-04-16T01:48:46;8.40;99.90
13174;DHT22;6652;48.802;9.190;2023-04-16T01:51:12;8.40;99.90
13174;DHT22;6652;48.802;9.190;2023-04-16T01:53:39;8.40;99.90
13174;DHT22;6652;48.802;9.190;2023-04-16T01:56:07;8.40;99.90
13174;DHT22;6652;48.802;9.190;2023-04-16T01:58:34;8.40;99.90
13174;DHT22;6652;48.802;9.190;2023-04-16T02:01:01;8.40;99.90
13174;DHT22;6652;48.802;9.190;2023-04-16T02:03:29;8.40;99.90
13174;DHT22;6652;48.802;9.190;2023-04-16T02:05:56;8.40;99.90
13174;DHT22;6652;48.802;9.190;2023-04-16T02:08:23;8.40;99.90
13174;DHT22;6652;48.802;9.190;2023-04-16T02:10:51;8.40;99.90
13174;DHT22;6652;48.802;9.190;2023-04-16T02:13:19;8.40;99.90
13174;DHT22;6652;48.802;9.190;2023-04-16T02:15:47;8.50;99.90
13174;DHT22;6652;48.802;9.190;2023-04-16T02:18:14;8.40;99.90
13174;DHT22;6652;48.802;9.190;2023-04-16T02:20:41;8.40;99.90
13174;DHT22;6652;48.802;9.190;2023-04-16T02:23:09;8.30;99.90
13174;DHT22;6652;48.802;9.190;2023-04-16T02:25:39;8.30;99.90
13174;DHT22;6652;48.802;9.190;2023-04-16T02:28:06;8.30;99.90
13174;DHT22;6652;48.802;9.190;2023-04-16T02:30:35;8.40;99.90
13174;DHT22;6652;48.802;9.190;2023-04-16T02:33:02;8.30;99.90
13174;DHT22;6652;48.802;9.190;2023-04-16T02:35:30;8.40;99.90
13174;DHT22;6652;48.802;9.190;2023-04-16T02:37:57;8.40;99.90
13174;DHT22;6652;48.802;9.190;2023-04-16T02:40:24;8.40;99.90
13174;DHT22;6652;48.802;9.190;2023-04-16T02:42:50;8.40;99.90
13174;DHT22;6652;48.802;9.190;2023-04-16T02:45:17;8.40;99.90
13174;DHT22;6652;48.802;9.190;2023-04-16T02:47:45;8.40;99.90
13174;DHT22;6652;48.802;9.190;2023-04-16T02:50:12;8.40;99.90
13174;DHT22;6652;48.802;9.190;2023-04-16T02:52:39;8.30;99.90
13174;DHT22;6652;48.802;9.190;2023-04-16T02:55:07;8.40;99.90
13174;DHT22;6652;48.802;9.190;2023-04-16T02:57:34;8.40;99.90
13174;DHT22;6652;48.802;9.190;2023-04-16T03:00:01;8.40;99.90
13174;DHT22;6652;48.802;9.190;2023-04-16T03:02:29;8.40;99.90
13174;DHT22;6652;48.802;9.190;2023-04-16T03:04:57;8.30;99.90
13174;DHT22;6652;48.802;9.190;2023-04-16T03:07:24;8.30;99.90
13174;DHT22;6652;48.802;9.190;2023-04-16T03:09:51;8.30;99.90
13174;DHT22;6652;48.802;9.190;2023-04-16T03:12:18;8.40;99.90
13174;DHT22;6652;48.802;9.190;2023-04-16T03:14:44;8.20;99.90
13174;DHT22;6652;48.802;9.190;2023-04-16T03:17:11;8.20;99.90
13174;DHT22;6652;48.802;9.190;2023-04-16T03:19:38;8.20;99.90
13174;DHT22;6652;48.802;9.190;2023-04-16T03:22:06;8.30;99.90
13174;DHT22;6652;48.802;9.190;2023-04-16T03:24:33;8.30;99.90
13174;DHT22;6652;48.802;9.190;2023-04-16T03:27:00;8.30;99.90
13174;DHT22;6652;48.802;9.190;2023-04-16T03:29:27;8.30;99.90
13174;DHT22;6652;48.802;9.190;2023-04-16T03:31:54;8.30;99.90
13174;DHT22;6652;48.802;9.190;2023-04-16T03:34:21;8.30;99.90
13174;DHT22;6652;48.802;9.190;2023-04-16T03:36:47;8.20;99.90
13174;DHT22;6652;48.802;9.190;2023-04-16T03:39:16;8.30;99.90
13174;DHT22;6652;48.802;9.190;2023-04-16T03:41:42;8.30;99.90
13174;DHT22;6652;48.802;9.190;2023-04-16T03:44:09;8.30;99.90
13174;DHT22;6652;48.802;9.190;2023-04-16T03:46:36;8.30;99.90
13174;DHT22;6652;48.802;9.190;2023-04-16T03:49:03;8.30;99.90
13174;DHT22;6652;48.802;9.190;2023-04-16T03:51:30;8.30;99.90
13174;DHT22;6652;48.802;9.190;2023-04-16T03:53:57;8.30;99.90
13174;DHT22;6652;48.802;9.190;2023-04-16T03:56:25;8.30;99.90
13174;DHT22;6652;48.802;9.190;2023-04-16T03:58:52;8.30;99.90
13174;DHT22;6652;48.802;9.190;2023-04-16T04:01:18;8.30;99.90
13174;DHT22;6652;48.802;9.190;2023-04-16T04:03:45;8.30;99.90
13174;DHT22;6652;48.802;9.190;2023-04-16T04:06:12;8.30;99.90
13174;DHT22;6652;48.802;9.190;2023-04-16T04:08:39;8.30;99.90
13174;DHT22;6652;48.802;9.190;2023-04-16T04:11:06;8.40;99.90
13174;DHT22;6652;48.802;9.190;2023-04-16T04:13:34;8.30;99.90
13174;DHT22;6652;48.802;9.190;2023-04-16T04:16:00;8.30;99.90
13174;DHT22;6652;48.802;9.190;2023-04-16T04:18:27;8.30;99.90
13174;DHT22;6652;48.802;9.190;2023-04-16T04:20:54;8.30;99.90
13174;DHT22;6652;48.802;9.190;2023-04-16T04:23:21;8.30;99.90
13174;DHT22;6652;48.802;9.190;2023-04-16T04:25:48;8.30;99.90
13174;DHT22;6652;48.802;9.190;2023-04-16T04:28:15;8.30;99.90
13174;DHT22;6652;48.802;9.190;2023-04-16T04:30:43;8.30;99.90
13174;DHT22;6652;48.802;9.190;2023-04-16T04:33:10;8.30;99.90
13174;DHT22;6652;48.802;9.190;2023-04-16T04:35:37;8.40;99.90
13174;DHT22;6652;48.802;9.190;2023-04-16T04:38:03;8.30;99.90
13174;DHT22;6652;48.802;9.190;2023-04-16T04:40:31;8.20;99.90
13174;DHT22;6652;48.802;9.190;2023-04-16T04:42:57;8.20;99.90
13174;DHT22;6652;48.802;9.190;2023-04-16T04:45:24;8.30;99.90
13174;DHT22;6652;48.802;9.190;2023-04-16T04:47:52;8.30;99.90
13174;DHT22;6652;48.802;9.190;2023-04-16T04:50:20;8.30;99.90
13174;DHT22;6652;48.802;9.190;2023-04-16T04:52:47;8.30;99.90
13174;DHT22;6652;48.802;9.190;2023-04-16T04:55:13;8.20;99.90
13174;DHT22;6652;48.802;9.190;2023-04-16T04:57:40;8.20;99.90
13174;DHT22;6652;48.802;9.190;2023-04-16T05:00:08;8.30;99.90
13174;DHT22;6652;48.802;9.190;2023-04-16T05:02:35;8.30;99.90
13174;DHT22;6652;48.802;9.190;2023-04-16T05:05:05;8.20;99.90
13174;DHT22;6652;48.802;9.190;2023-04-16T05:07:31;8.20;99.90
13174;DHT22;6652;48.802;9.190;2023-04-16T05:09:58;8.20;99.90
13174;DHT22;6652;48.802;9.190;2023-04-16T05:12:25;8.30;99.90
13174;DHT22;6652;48.802;9.190;2023-04-16T05:14:52;8.20;99.90
13174;DHT22;6652;48.802;9.190;2023-04-16T05:17:19;8.20;99.90
13174;DHT22;6652;48.802;9.190;2023-04-16T05:19:45;8.30;99.90
13174;DHT22;6652;48.802;9.190;2023-04-16T05:22:14;8.40;99.90
13174;DHT22;6652;48.802;9.190;2023-04-16T05:24:43;8.20;99.90
13174;DHT22;6652;48.802;9.190;2023-04-16T05:27:10;8.20;99.90
13174;DHT22;6652;48.802;9.190;2023-04-16T05:29:37;9.30;99.90
13174;DHT22;6652;48.802;9.190;2023-04-16T05:32:04;8.30;99.90
13174;DHT22;6652;48.802;9.190;2023-04-16T05:34:34;8.40;99.90
13174;DHT22;6652;48.802;9.190;2023-04-16T05:37:01;9.20;99.90
13174;DHT22;6652;48.802;9.190;2023-04-16T05:39:29;8.20;99.90
13174;DHT22;6652;48.802;9.190;2023-04-16T05:41:56;8.50;99.90
13174;DHT22;6652;48.802;9.190;2023-04-16T05:44:25;8.40;99.90
13174;DHT22;6652;48.802;9.190;2023-04-16T05:46:53;8.30;99.90
13174;DHT22;6652;48.802;9.190;2023-04-16T05:49:22;8.30;99.90
13174;DHT22;6652;48.802;9.190;2023-04-16T05:51:52;8.30;99.90
13174;DHT22;6652;48.802;9.190;2023-04-16T05:54:30;8.30;99.90
13174;DHT22;6652;48.802;9.190;2023-04-16T05:56:57;8.20;99.90
13174;DHT22;6652;48.802;9.190;2023-04-16T05:59:26;8.20;99.90
13174;DHT22;6652;48.802;9.190;2023-04-16T06:01:53;8.20;99.90
13174;DHT22;6652;48.802;9.190;2023-04-16T06:04:20;8.60;99.90
13174;DHT22;6652;48.802;9.190;2023-04-16T06:06:47;8.80;99.90
13174;DHT22;6652;48.802;9.190;2023-04-16T06:09:14;8.40;99.90
13174;DHT22;6652;48.802;9.190;2023-04-16T06:11:46;8.60;99.90
13174;DHT22;6652;48.802;9.190;2023-04-16T06:14:15;8.30;99.90
13174;DHT22;6652;48.802;9.190;2023-04-16T06:16:42;8.30;99.90
13174;DHT22;6652;48.802;9.190;2023-04-16T06:19:09;8.30;99.90
13174;DHT22;6652;48.802;9.190;2023-04-16T06:21:38;8.40;99.90
13174;DHT22;6652;48.802;9.190;2023-04-16T06:24:05;8.70;99.90
13174;DHT22;6652;48.802;9.190;2023-04-16T06:26:33;8.30;99.90
13174;DHT22;6652;48.802;9.190;2023-04-16T06:29:01;8.30;99.90
13174;DHT22;6652;48.802;9.190;2023-04-16T06:31:29;8.40;99.90
13174;DHT22;6652;48.802;9.190;2023-04-16T06:33:57;8.30;99.90
13174;DHT22;6652;48.802;9.190;2023-04-16T06:36:24;8.30;99.90
13174;DHT22;6652;48.802;9.190;2023-04-16T06:38:52;8.40;99.90
13174;DHT22;6652;48.802;9.190;2023-04-16T06:41:19;8.40;99.90
13174;DHT22;6652;48.802;9.190;2023-04-16T06:43:52;8.40;99.90
13174;DHT22;6652;48.802;9.190;2023-04-16T06:46:20;8.40;99.90
13174;DHT22;6652;48.802;9.190;2023-04-16T06:48:47;8.50;99.90
13174;DHT22;6652;48.802;9.190;2023-04-16T06:51:13;8.50;99.90
13174;DHT22;6652;48.802;9.190;2023-04-16T06:53:40;8.50;99.90
13174;DHT22;6652;48.802;9.190;2023-04-16T06:56:10;8.50;99.90
13174;DHT22;6652;48.802;9.190;2023-04-16T06:58:37;8.90;99.90
13174;DHT22;6652;48.802;9.190;2023-04-16T07:01:04;8.60;99.90
13174;DHT22;6652;48.802;9.190;2023-04-16T07:03:32;8.60;99.90
13174;DHT22;6652;48.802;9.190;2023-04-16T07:05:59;8.60;99.90
13174;DHT22;6652;48.802;9.190;2023-04-16T07:08:27;8.60;99.90
13174;DHT22;6652;48.802;9.190;2023-04-16T07:10:53;8.60;99.90
13174;DHT22;6652;48.802;9.190;2023-04-16T07:13:20;8.70;99.90
13174;DHT22;6652;48.802;9.190;2023-04-16T07:15:49;8.80;99.90
13174;DHT22;6652;48.802;9.190;2023-04-16T07:18:17;8.90;99.90
13174;DHT22;6652;48.802;9.190;2023-04-16T07:20:47;9.00;99.90
13174;DHT22;6652;48.802;9.190;2023-04-16T07:23:14;9.10;99.90
13174;DHT22;6652;48.802;9.190;2023-04-16T07:25:44;9.20;99.90
13174;DHT22;6652;48.802;9.190;2023-04-16T07:28:40;9.20;99.90
13174;DHT22;6652;48.802;9.190;2023-04-16T07:31:22;9.30;99.90
13174;DHT22;6652;48.802;9.190;2023-04-16T07:34:16;9.60;99.90
13174;DHT22;6652;48.802;9.190;2023-04-16T08:21:43;9.00;99.90
13174;DHT22;6652;48.802;9.190;2023-04-16T08:24:44;9.00;99.90
13174;DHT22;6652;48.802;9.190;2023-04-16T08:44:42;9.40;99.90
13174;DHT22;6652;48.802;9.190;2023-04-16T08:47:13;9.40;99.90
13174;DHT22;6652;48.802;9.190;2023-04-16T08:49:54;10.30;99.90
13174;DHT22;6652;48.802;9.190;2023-04-16T08:55:49;9.50;99.90
13174;DHT22;6652;48.802;9.190;2023-04-16T08:58:31;9.60;99.90
13174;DHT22;6652;48.802;9.190;2023-04-16T09:04:49;9.70;99.90
13174;DHT22;6652;48.802;9.190;2023-04-16T09:07:41;9.70;99.90
13174;DHT22;6652;48.802;9.190;2023-04-16T09:10:27;9.90;99.90
13174;DHT22;6652;48.802;9.190;2023-04-16T09:13:13;10.00;99.90
13174;DHT22;6652;48.802;9.190;2023-04-16T09:16:47;10.20;99.90
13174;DHT22;6652;48.802;9.190;2023-04-16T09:19:31;10.20;99.90
13174;DHT22;6652;48.802;9.190;2023-04-16T09:22:38;10.30;99.90
13174;DHT22;6652;48.802;9.190;2023-04-16T09:25:31;10.00;99.90
13174;DHT22;6652;48.802;9.190;2023-04-16T09:28:44;10.30;99.90
13174;DHT22;6652;48.802;9.190;2023-04-16T09:35:18;10.30;99.90
13174;DHT22;6652;48.802;9.190;2023-04-16T09:38:11;10.40;99.90
13174;DHT22;6652;48.802;9.190;2023-04-16T09:41:25;10.30;99.90
13174;DHT22;6652;48.802;9.190;2023-04-16T09:44:19;10.60;99.90
13174;DHT22;6652;48.802;9.190;2023-04-16T09:57:06;10.10;99.90
13174;DHT22;6652;48.802;9.190;2023-04-16T10:00:02;9.90;99.90
13174;DHT22;6652;48.802;9.190;2023-04-16T10:06:16;10.00;99.90
13174;DHT22;6652;48.802;9.190;2023-04-16T10:09:09;9.90;99.90
13174;DHT22;6652;48.802;9.190;2023-04-16T10:12:40;9.90;99.90
13174;DHT22;6652;48.802;9.190;2023-04-16T10:15:32;9.90;99.90
13174;DHT22;6652;48.802;9.190;2023-04-16T10:18:44;9.90;99.90
13174;DHT22;6652;48.802;9.190;2023-04-16T10:21:48;9.70;99.90
13174;DHT22;6652;48.802;9.190;2023-04-16T11:13:14;10.80;99.90
13174;DHT22;6652;48.802;9.190;2023-04-16T11:19:26;10.70;99.90
13174;DHT22;6652;48.802;9.190;2023-04-16T11:22:16;10.60;99.90
13174;DHT22;6652;48.802;9.190;2023-04-16T11:28:47;10.60;99.90
13174;DHT22;6652;48.802;9.190;2023-04-16T11:38:19;10.40;99.90
13174;DHT22;6652;48.802;9.190;2023-04-16T11:44:31;10.60;99.90
13174;DHT22;6652;48.802;9.190;2023-04-16T11:47:41;10.50;99.90
13174;DHT22;6652;48.802;9.190;2023-04-16T11:50:49;10.60;99.90
13174;DHT22;6652;48.802;9.190;2023-04-16T11:53:56;10.60;99.90
13174;DHT22;6652;48.802;9.190;2023-04-16T11:56:56;10.60;99.90
13174;DHT22;6652;48.802;9.190;2023-04-16T12:00:04;10.50;99.90
13174;DHT22;6652;48.802;9.190;2023-04-16T12:02:58;10.50;99.90
13174;DHT22;6652;48.802;9.190;2023-04-16T12:05:54;10.60;99.90
13174;DHT22;6652;48.802;9.190;2023-04-16T12:09:21;10.60;99.90
13174;DHT22;6652;48.802;9.190;2023-04-16T12:12:18;10.60;99.90
13174;DHT22;6652;48.802;9.190;2023-04-16T12:25:45;10.60;99.90
13174;DHT22;6652;48.802;9.190;2023-04-16T13:01:57;10.60;99.90
13174;DHT22;6652;48.802;9.190;2023-04-16T13:04:45;10.70;99.90
13174;DHT22;6652;48.802;9.190;2023-04-16T13:14:13;10.50;99.90
13174;DHT22;6652;48.802;9.190;2023-04-16T13:17:15;10.50;99.90
13174;DHT22;6652;48.802;9.190;2023-04-16T13:20:23;10.80;99.90
13174;DHT22;6652;48.802;9.190;2023-04-16T13:23:11;10.60;99.90
13174;DHT22;6652;48.802;9.190;2023-04-16T13:25:46;11.30;99.90
13174;DHT22;6652;48.802;9.190;2023-04-16T13:28:17;10.60;99.90
13174;DHT22;6652;48.802;9.190;2023-04-16T13:30:45;10.60;99.90
13174;DHT22;6652;48.802;9.190;2023-04-16T13:33:16;10.60;99.90
13174;DHT22;6652;48.802;9.190;2023-04-16T13:35:43;10.60;99.90
13174;DHT22;6652;48.802;9.190;2023-04-16T13:38:10;10.90;99.90
13174;DHT22;6652;48.802;9.190;2023-04-16T13:40:37;10.80;99.90
13174;DHT22;6652;48.802;9.190;2023-04-16T13:43:04;10.70;99.90
13174;DHT22;6652;48.802;9.190;2023-04-16T13:45:31;11.00;99.90
13174;DHT22;6652;48.802;9.190;2023-04-16T13:47:58;10.80;99.90
13174;DHT22;6652;48.802;9.190;2023-04-16T13:50:27;10.80;99.90
13174;DHT22;6652;48.802;9.190;2023-04-16T13:52:54;10.70;99.90
13174;DHT22;6652;48.802;9.190;2023-04-16T13:55:21;10.60;99.90
13174;DHT22;6652;48.802;9.190;2023-04-16T13:57:48;10.70;99.90
13174;DHT22;6652;48.802;9.190;2023-04-16T14:00:18;10.50;99.90
13174;DHT22;6652;48.802;9.190;2023-04-16T14:02:45;10.50;99.90
13174;DHT22;6652;48.802;9.190;2023-04-16T14:05:12;10.60;99.90
13174;DHT22;6652;48.802;9.190;2023-04-16T14:07:41;10.70;99.90
13174;DHT22;6652;48.802;9.190;2023-04-16T14:10:09;10.70;99.90
13174;DHT22;6652;48.802;9.190;2023-04-16T14:12:37;10.50;99.90
13174;DHT22;6652;48.802;9.190;2023-04-16T14:15:05;10.50;99.90
13174;DHT22;6652;48.802;9.190;2023-04-16T14:17:39;10.60;99.90
13174;DHT22;6652;48.802;9.190;2023-04-16T14:20:54;10.70;99.90
13174;DHT22;6652;48.802;9.190;2023-04-16T14:24:08;10.60;99.90
13174;DHT22;6652;48.802;9.190;2023-04-16T14:26:51;10.60;99.90
13174;DHT22;6652;48.802;9.190;2023-04-16T14:29:19;10.60;99.90
13174;DHT22;6652;48.802;9.190;2023-04-16T14:31:49;10.60;99.90
13174;DHT22;6652;48.802;9.190;2023-04-16T14:34:43;10.50;99.90
13174;DHT22;6652;48.802;9.190;2023-04-16T14:37:17;10.30;99.90
13174;DHT22;6652;48.802;9.190;2023-04-16T14:39:45;10.40;99.90
13174;DHT22;6652;48.802;9.190;2023-04-16T14:42:25;10.40;99.90
13174;DHT22;6652;48.802;9.190;2023-04-16T14:44:56;10.30;99.90
13174;DHT22;6652;48.802;9.190;2023-04-16T14:47:27;10.50;99.90
13174;DHT22;6652;48.802;9.190;2023-04-16T14:50:08;10.30;99.90
13174;DHT22;6652;48.802;9.190;2023-04-16T14:52:35;10.20;99.90
13174;DHT22;6652;48.802;9.190;2023-04-16T14:55:04;10.20;99.90
13174;DHT22;6652;48.802;9.190;2023-04-16T14:57:31;10.20;99.90
13174;DHT22;6652;48.802;9.190;2023-04-16T14:59:58;10.20;99.90
13174;DHT22;6652;48.802;9.190;2023-04-16T15:05:47;10.20;99.90
13174;DHT22;6652;48.802;9.190;2023-04-16T15:08:19;10.10;99.90
13174;DHT22;6652;48.802;9.190;2023-04-16T15:10:47;10.20;99.90
13174;DHT22;6652;48.802;9.190;2023-04-16T15:13:15;10.20;99.90
13174;DHT22;6652;48.802;9.190;2023-04-16T15:15:42;10.20;99.90
13174;DHT22;6652;48.802;9.190;2023-04-16T15:18:09;10.20;99.90
13174;DHT22;6652;48.802;9.190;2023-04-16T15:20:36;10.30;99.90
13174;DHT22;6652;48.802;9.190;2023-04-16T15:23:02;10.30;99.90
13174;DHT22;6652;48.802;9.190;2023-04-16T15:25:29;10.20;99.90
13174;DHT22;6652;48.802;9.190;2023-04-16T15:27:58;10.20;99.90
13174;DHT22;6652;48.802;9.190;2023-04-16T15:30:33;10.20;99.90
13174;DHT22;6652;48.802;9.190;2023-04-16T15:33:00;10.80;99.90
13174;DHT22;6652;48.802;9.190;2023-04-16T15:35:32;11.20;99.90
13174;DHT22;6652;48.802;9.190;2023-04-16T15:38:02;10.10;99.90
13174;DHT22;6652;48.802;9.190;2023-04-16T15:40:29;10.00;99.90
13174;DHT22;6652;48.802;9.190;2023-04-16T15:42:55;10.20;99.90
13174;DHT22;6652;48.802;9.190;2023-04-16T15:45:24;10.60;99.90
13174;DHT22;6652;48.802;9.190;2023-04-16T15:47:51;10.30;99.90
13174;DHT22;6652;48.802;9.190;2023-04-16T15:50:17;9.90;99.90
13174;DHT22;6652;48.802;9.190;2023-04-16T15:52:45;9.90;99.90
13174;DHT22;6652;48.802;9.190;2023-04-16T15:55:12;9.90;99.90
13174;DHT22;6652;48.802;9.190;2023-04-16T15:57:38;9.90;99.90
13174;DHT22;6652;48.802;9.190;2023-04-16T16:00:07;9.90;99.90
13174;DHT22;6652;48.802;9.190;2023-04-16T16:02:39;9.90;99.90
13174;DHT22;6652;48.802;9.190;2023-04-16T16:05:08;10.00;99.90
13174;DHT22;6652;48.802;9.190;2023-04-16T16:07:35;10.00;99.90
13174;DHT22;6652;48.802;9.190;2023-04-16T16:10:03;10.40;99.90
13174;DHT22;6652;48.802;9.190;2023-04-16T16:12:30;9.90;99.90
13174;DHT22;6652;48.802;9.190;2023-04-16T16:14:57;9.90;99.90
13174;DHT22;6652;48.802;9.190;2023-04-16T16:17:27;9.90;99.90
13174;DHT22;6652;48.802;9.190;2023-04-16T16:19:57;9.90;99.90
13174;DHT22;6652;48.802;9.190;2023-04-16T16:22:26;9.90;99.90
13174;DHT22;6652;48.802;9.190;2023-04-16T16:24:54;9.90;99.90
13174;DHT22;6652;48.802;9.190;2023-04-16T16:27:22;9.90;99.90
13174;DHT22;6652;48.802;9.190;2023-04-16T16:29:49;9.90;99.90
13174;DHT22;6652;48.802;9.190;2023-04-16T16:32:16;9.90;99.90
13174;DHT22;6652;48.802;9.190;2023-04-16T16:34:42;10.00;99.90
13174;DHT22;6652;48.802;9.190;2023-04-16T16:37:10;9.90;99.90
13174;DHT22;6652;48.802;9.190;2023-04-16T16:39:37;9.90;99.90
13174;DHT22;6652;48.802;9.190;2023-04-16T16:42:04;10.00;99.90
13174;DHT22;6652;48.802;9.190;2023-04-16T16:44:33;10.00;99.90
13174;DHT22;6652;48.802;9.190;2023-04-16T16:47:00;10.00;99.90
13174;DHT22;6652;48.802;9.190;2023-04-16T16:49:27;10.30;99.90
13174;DHT22;6652;48.802;9.190;2023-04-16T16:51:54;10.00;99.90
13174;DHT22;6652;48.802;9.190;2023-04-16T16:54:23;10.00;99.90
13174;DHT22;6652;48.802;9.190;2023-04-16T16:56:51;11.00;99.90
13174;DHT22;6652;48.802;9.190;2023-04-16T16:59:17;10.20;99.90
13174;DHT22;6652;48.802;9.190;2023-04-16T17:01:44;10.00;99.90
13174;DHT22;6652;48.802;9.190;2023-04-16T17:04:11;10.00;99.90
13174;DHT22;6652;48.802;9.190;2023-04-16T17:06:38;10.30;99.90
13174;DHT22;6652;48.802;9.190;2023-04-16T17:09:05;10.00;99.90
13174;DHT22;6652;48.802;9.190;2023-04-16T17:11:33;10.00;99.90
13174;DHT22;6652;48.802;9.190;2023-04-16T17:14:00;10.10;99.90
13174;DHT22;6652;48.802;9.190;2023-04-16T17:16:27;10.00;99.90
13174;DHT22;6652;48.802;9.190;2023-04-16T17:18:54;10.00;99.90
13174;DHT22;6652;48.802;9.190;2023-04-16T17:21:21;9.90;99.90
13174;DHT22;6652;48.802;9.190;2023-04-16T17:23:48;9.80;99.90
13174;DHT22;6652;48.802;9.190;2023-04-16T17:26:15;10.10;99.90
13174;DHT22;6652;48.802;9.190;2023-04-16T17:28:47;10.50;99.90
13174;DHT22;6652;48.802;9.190;2023-04-16T17:31:18;10.20;99.90
13174;DHT22;6652;48.802;9.190;2023-04-16T17:33:45;10.30;99.90
13174;DHT22;6652;48.802;9.190;2023-04-16T17:36:15;9.90;99.90
13174;DHT22;6652;48.802;9.190;2023-04-16T17:38:44;10.10;99.90
13174;DHT22;6652;48.802;9.190;2023-04-16T17:41:14;10.00;99.90
13174;DHT22;6652;48.802;9.190;2023-04-16T17:43:49;9.80;99.90
13174;DHT22;6652;48.802;9.190;2023-04-16T17:46:20;9.90;99.90
13174;DHT22;6652;48.802;9.190;2023-04-16T17:48:54;11.00;99.90
13174;DHT22;6652;48.802;9.190;2023-04-16T17:51:33;10.50;99.90
13174;DHT22;6652;48.802;9.190;2023-04-16T17:54:02;9.90;99.90
13174;DHT22;6652;48.802;9.190;2023-04-16T18:00:01;9.90;99.90
13174;DHT22;6652;48.802;9.190;2023-04-16T18:02:38;10.00;99.90
13174;DHT22;6652;48.802;9.190;2023-04-16T18:05:23;9.90;99.90
13174;DHT22;6652;48.802;9.190;2023-04-16T18:07:57;9.90;99.90
13174;DHT22;6652;48.802;9.190;2023-04-16T18:10:38;9.90;99.90
13174;DHT22;6652;48.802;9.190;2023-04-16T18:13:04;9.80;99.90
13174;DHT22;6652;48.802;9.190;2023-04-16T18:15:38;9.80;99.90
13174;DHT22;6652;48.802;9.190;2023-04-16T18:18:06;9.80;99.90
13174;DHT22;6652;48.802;9.190;2023-04-16T18:20:33;9.90;99.90
13174;DHT22;6652;48.802;9.190;2023-04-16T18:23:01;9.90;99.90
13174;DHT22;6652;48.802;9.190;2023-04-16T18:28:42;9.70;99.90
13174;DHT22;6652;48.802;9.190;2023-04-16T18:31:20;9.70;99.90
13174;DHT22;6652;48.802;9.190;2023-04-16T18:33:58;9.70;99.90
13174;DHT22;6652;48.802;9.190;2023-04-16T18:40:27;9.70;99.90
13174;DHT22;6652;48.802;9.190;2023-04-16T18:43:45;9.70;99.90
13174;DHT22;6652;48.802;9.190;2023-04-16T18:50:28;9.70;99.90
13174;DHT22;6652;48.802;9.190;2023-04-16T18:53:45;9.60;99.90
13174;DHT22;6652;48.802;9.190;2023-04-16T18:56:41;9.70;99.90
13174;DHT22;6652;48.802;9.190;2023-04-16T19:00:14;9.70;99.90
13174;DHT22;6652;48.802;9.190;2023-04-16T19:09:45;9.70;99.90
13174;DHT22;6652;48.802;9.190;2023-04-16T19:13:06;9.60;99.90
13174;DHT22;6652;48.802;9.190;2023-04-16T19:16:19;9.70;99.90
13174;DHT22;6652;48.802;9.190;2023-04-16T19:29:31;9.70;99.90
13174;DHT22;6652;48.802;9.190;2023-04-16T19:33:22;9.70;99.90
13174;DHT22;6652;48.802;9.190;2023-04-16T19:36:10;9.70;99.90
13174;DHT22;6652;48.802;9.190;2023-04-16T19:42:50;9.60;99.90
13174;DHT22;6652;48.802;9.190;2023-04-16T19:45:44;9.60;99.90
13174;DHT22;6652;48.802;9.190;2023-04-16T19:49:10;9.60;99.90
13174;DHT22;6652;48.802;9.190;2023-04-16T19:52:11;9.60;99.90
13174;DHT22;6652;48.802;9.190;2023-04-16T19:54:38;9.60;99.90
13174;DHT22;6652;48.802;9.190;2023-04-16T19:57:05;9.70;99.90
13174;DHT22;6652;48.802;9.190;2023-04-16T19:59:32;9.60;99.90
13174;DHT22;6652;48.802;9.190;2023-04-16T20:02:00;9.60;99.90
13174;DHT22;6652;48.802;9.190;2023-04-16T20:04:28;9.60;99.90
13174;DHT22;6652;48.802;9.190;2023-04-16T20:06:55;10.60;99.90
13174;DHT22;6652;48.802;9.190;2023-04-16T20:09:22;9.60;99.90
13174;DHT22;6652;48.802;9.190;2023-04-16T20:11:50;9.50;99.90
13174;DHT22;6652;48.802;9.190;2023-04-16T20:14:19;9.60;99.90
13174;DHT22;6652;48.802;9.190;2023-04-16T20:16:46;9.60;99.90
13174;DHT22;6652;48.802;9.190;2023-04-16T20:19:14;9.60;99.90
13174;DHT22;6652;48.802;9.190;2023-04-16T20:25:05;9.60;99.90
13174;DHT22;6652;48.802;9.190;2023-04-16T20:27:32;9.60;99.90
13174;DHT22;6652;48.802;9.190;2023-04-16T20:30:01;9.60;99.90
13174;DHT22;6652;48.802;9.190;2023-04-16T20:32:29;9.60;99.90
13174;DHT22;6652;48.802;9.190;2023-04-16T20:34:58;9.60;99.90
13174;DHT22;6652;48.802;9.190;2023-04-16T20:37:26;9.60;99.90
13174;DHT22;6652;48.802;9.190;2023-04-16T20:39:54;9.60;99.90
13174;DHT22;6652;48.802;9.190;2023-04-16T20:42:21;9.60;99.90